Time;durP1;ratioP1;P1;durP2;ratioP2;P2;SDS_P1;SDS_P2;PMS_P1;PMS_P2;Temp;Humidity;BMP_temperature;BMP_pressure;BME280_temperature;BME280_humidity;BME280_pressure;Samples;Min_cycle;Max_cycle;Signal;HPM_P1;HPM_P2
2022/05/25 00:00:09;;;;;;;2.03;1.10;;;11.60;99.90;;;-144.05;67.88;125687.94;4975683;28;20023;-83
2022/05/25 00:02:36;;;;;;;5.28;1.23;;;11.50;99.90;;;-144.05;67.70;125687.94;4976910;28;20026;-85
2022/05/25 00:05:05;;;;;;;2.13;1.00;;;11.60;99.90;;;-144.05;68.15;125687.94;4977171;28;20037;-85
2022/05/25 00:07:32;;;;;;;2.80;1.10;;;11.50;99.90;;;-144.05;68.19;125687.94;4975700;28;20034;-87
2022/05/25 00:09:58;;;;;;;1.55;0.90;;;11.50;99.90;;;-144.05;68.00;125687.94;4975636;28;20075;-86
2022/05/25 00:12:24;;;;;;;2.25;1.00;;;11.50;99.90;;;-144.05;68.09;125687.94;4976257;28;20058;-86
2022/05/25 00:14:50;;;;;;;4.93;1.20;;;11.40;99.90;;;-144.05;68.25;125687.94;4977883;28;20039;-85
2022/05/25 00:17:16;;;;;;;2.00;1.20;;;11.40;99.90;;;-144.05;68.63;125687.94;4976929;28;20035;-84
2022/05/25 00:20:01;;;;;;;2.58;1.20;;;11.50;99.90;;;-144.05;69.35;125687.94;4976972;28;20031;-85
2022/05/25 00:22:54;;;;;;;4.47;1.42;;;11.40;99.90;;;-144.05;68.82;125687.94;4977263;28;20022;-85
2022/05/25 00:25:32;;;;;;;1.90;1.20;;;11.40;99.90;;;-144.05;69.80;125687.94;4975919;28;20081;-84
2022/05/25 00:28:05;;;;;;;2.90;1.10;;;11.40;99.90;;;-144.05;69.67;125687.94;4976863;28;20027;-83
2022/05/25 00:30:32;;;;;;;1.25;0.90;;;11.30;99.90;;;-144.05;69.66;125687.94;4976431;28;20465;-85
2022/05/25 00:33:00;;;;;;;4.63;1.40;;;11.40;99.90;;;-144.05;69.55;125687.94;4976310;28;20023;-85
2022/05/25 00:35:31;;;;;;;3.03;1.33;;;11.30;99.90;;;-144.05;69.88;125687.94;4977273;28;20505;-86
2022/05/25 00:37:58;;;;;;;3.83;1.52;;;11.30;99.90;;;-144.05;70.60;125687.94;4976960;28;20042;-84
2022/05/25 00:40:45;;;;;;;1.17;1.02;;;11.30;99.90;;;-144.05;71.11;125687.94;4977327;28;20057;-86
2022/05/25 00:43:14;;;;;;;2.40;1.30;;;11.20;99.90;;;-144.05;70.98;125687.94;4976009;28;20479;-86
2022/05/25 00:45:57;;;;;;;2.63;1.20;;;11.20;99.90;;;-144.05;71.73;125687.94;4977285;28;20426;-85
2022/05/25 00:48:48;;;;;;;3.85;1.30;;;11.10;99.90;;;-144.05;71.74;125687.94;4977382;28;20027;-84
2022/05/25 00:51:25;;;;;;;4.03;1.17;;;11.00;99.90;;;-144.05;72.52;125687.94;4992961;28;20138;-83
2022/05/25 00:54:15;;;;;;;5.93;1.40;;;11.00;99.90;;;-144.05;73.37;125687.94;4993046;28;20479;-84
2022/05/25 00:56:48;;;;;;;2.50;1.20;;;10.90;99.90;;;-144.05;73.88;125687.94;4977922;28;20483;-84
2022/05/25 00:59:26;;;;;;;2.80;1.58;;;10.80;99.90;;;-144.05;74.95;125687.94;4992089;28;20346;-85
2022/05/25 01:01:55;;;;;;;5.55;1.85;;;10.80;99.90;;;-144.05;74.81;125687.94;4976449;28;20124;-85
2022/05/25 01:04:21;;;;;;;2.85;1.58;;;10.80;99.90;;;-144.05;75.17;125687.94;4975044;28;20402;-85
2022/05/25 01:07:35;;;;;;;4.47;1.80;;;10.80;99.90;;;-144.05;75.21;125687.94;4976938;28;20399;-85
2022/05/25 01:10:30;;;;;;;4.85;1.70;;;10.80;99.90;;;-144.05;75.42;125687.94;4993762;28;20479;-87
2022/05/25 01:13:36;;;;;;;4.80;2.00;;;10.70;99.90;;;-144.05;75.40;125687.94;4983819;28;20042;-86
2022/05/25 01:16:54;;;;;;;2.47;1.40;;;10.70;99.90;;;-144.05;76.05;125687.94;4988567;28;20054;-82
2022/05/25 01:19:42;;;;;;;4.65;1.70;;;10.70;99.90;;;-144.05;76.48;125687.94;5006501;28;20041;-87
2022/05/25 01:22:44;;;;;;;4.25;2.22;;;10.70;99.90;;;-144.05;77.33;125687.94;5003867;28;20164;-86
2022/05/25 01:25:50;;;;;;;3.85;2.00;;;10.70;99.90;;;-144.05;77.50;125687.94;4990926;28;20423;-84
2022/05/25 01:29:06;;;;;;;2.95;2.22;;;10.70;99.90;;;-144.05;77.42;125687.94;4999644;28;20037;-88
2022/05/25 01:32:11;;;;;;;3.10;1.80;;;10.70;99.90;;;-144.05;77.80;125687.94;4978440;28;20027;-84
2022/05/25 01:35:08;;;;;;;4.95;1.83;;;10.70;99.90;;;-144.05;77.69;125687.94;4978741;28;20043;-84
2022/05/25 01:38:04;;;;;;;4.80;2.00;;;10.70;99.90;;;-144.05;77.56;125687.94;4978211;28;20109;-85
2022/05/25 01:41:21;;;;;;;3.17;1.90;;;10.70;99.90;;;-144.05;77.70;125687.94;4977253;28;20086;-86
2022/05/25 01:44:12;;;;;;;3.95;1.90;;;10.70;99.90;;;-144.05;77.75;125687.94;4977611;28;20019;-87
2022/05/25 01:46:48;;;;;;;7.00;2.05;;;10.60;99.90;;;-144.05;78.52;125687.94;4978891;28;20026;-85
2022/05/25 01:49:27;;;;;;;5.35;2.35;;;10.60;99.90;;;-144.05;79.11;125687.94;4978050;28;20035;-85
2022/05/25 01:52:06;;;;;;;5.97;2.17;;;10.60;99.90;;;-144.05;79.03;125687.94;4977801;28;20035;-85
2022/05/25 01:54:40;;;;;;;4.53;1.70;;;10.50;99.90;;;-144.05;79.40;125687.94;4977498;28;20031;-88
2022/05/25 01:57:15;;;;;;;4.05;2.08;;;10.50;99.90;;;-144.05;79.15;125687.94;4978089;28;20027;-86
2022/05/25 01:59:44;;;;;;;4.18;2.25;;;10.50;99.90;;;-144.05;79.25;125687.94;4976918;28;20415;-86
2022/05/25 02:05:00;;;;;;;;;;;10.60;99.90;;;-144.05;79.00;125687.94;4978034;28;20042;-85
2022/05/25 02:07:46;;;;;;;2.95;1.88;;;10.60;99.90;;;-144.05;79.30;125687.94;4992506;28;19910;-85
2022/05/25 02:10:56;;;;;;;5.40;2.40;;;10.50;99.90;;;-144.05;79.77;125687.94;4977566;28;20027;-84
2022/05/25 02:13:54;;;;;;;5.05;2.65;;;10.50;99.90;;;-144.05;79.31;125687.94;4976201;28;20065;-84
2022/05/25 02:17:09;;;;;;;4.53;2.25;;;10.50;99.90;;;-144.05;79.80;125687.94;4977764;28;20026;-85
2022/05/25 02:19:59;;;;;;;4.10;2.72;;;10.40;99.90;;;-144.05;79.54;125687.94;4991882;28;20446;-86
2022/05/25 02:22:42;;;;;;;6.25;2.20;;;10.40;99.90;;;-144.05;80.19;125687.94;4992940;28;20031;-84
2022/05/25 02:25:47;;;;;;;4.88;2.28;;;10.40;99.90;;;-144.05;80.24;125687.94;4977433;28;20090;-87
2022/05/25 02:28:30;;;;;;;6.10;3.00;;;10.30;99.90;;;-144.05;80.17;125687.94;4979450;28;20394;-85
2022/05/25 02:31:01;;;;;;;2.70;1.95;;;10.30;99.90;;;-144.05;80.48;125687.94;4977096;28;20034;-86
2022/05/25 02:34:01;;;;;;;4.90;1.92;;;10.30;99.90;;;-144.05;80.57;125687.94;4976021;28;20586;-87
2022/05/25 02:36:34;;;;;;;5.25;2.28;;;10.30;99.90;;;-144.05;80.44;125687.94;4978583;28;20046;-86
2022/05/25 02:39:09;;;;;;;4.07;2.15;;;10.30;99.90;;;-144.05;80.39;125687.94;4980724;28;20035;-87
2022/05/25 02:41:51;;;;;;;6.15;2.72;;;10.20;99.90;;;-144.05;80.99;125687.94;4979629;28;20037;-85
2022/05/25 02:44:19;;;;;;;6.28;2.33;;;10.20;99.90;;;-144.05;81.02;125687.94;4978278;28;20117;-85
2022/05/25 02:46:45;;;;;;;4.82;2.47;;;10.10;99.90;;;-144.05;81.01;125687.94;4994427;28;20042;-85
2022/05/25 02:49:13;;;;;;;8.05;2.80;;;10.10;99.90;;;-144.05;81.16;125687.94;4978105;28;20042;-86
2022/05/25 02:51:39;;;;;;;2.97;2.22;;;10.10;99.90;;;-144.05;80.77;125687.94;4977853;28;20479;-87
2022/05/25 02:54:07;;;;;;;4.95;2.65;;;10.10;99.90;;;-144.05;80.85;125687.94;4978343;28;20457;-87
2022/05/25 02:56:35;;;;;;;5.38;2.70;;;10.10;99.90;;;-144.05;81.48;125687.94;4979433;28;20042;-83
2022/05/25 02:59:01;;;;;;;7.00;3.60;;;10.10;99.90;;;-144.05;82.12;125687.94;4978344;28;20026;-84
2022/05/25 03:01:27;;;;;;;7.38;3.28;;;10.10;99.90;;;-144.05;82.51;125687.94;4994989;28;20442;-84
2022/05/25 03:03:53;;;;;;;4.72;2.97;;;10.10;99.90;;;-144.05;82.04;125687.94;4979718;28;20023;-85
2022/05/25 03:06:19;;;;;;;7.45;3.38;;;10.10;99.90;;;-144.05;82.13;125687.94;4995112;28;20027;-86
2022/05/25 03:08:46;;;;;;;7.00;3.40;;;10.20;99.90;;;-144.05;82.22;125687.94;4979550;28;20042;-84
2022/05/25 03:11:12;;;;;;;5.97;3.25;;;10.10;99.90;;;-144.05;82.22;125687.94;4980175;28;20035;-86
2022/05/25 03:13:41;;;;;;;4.88;3.30;;;10.10;99.90;;;-144.05;82.26;125687.94;4978782;28;20098;-85
2022/05/25 03:16:08;;;;;;;7.35;3.70;;;10.10;99.90;;;-144.05;82.72;125687.94;4979201;28;20035;-86
2022/05/25 03:18:35;;;;;;;6.07;3.95;;;10.10;99.90;;;-144.05;82.57;125687.94;4979594;28;20540;-85
2022/05/25 03:21:01;;;;;;;6.15;4.00;;;10.10;99.90;;;-144.05;82.47;125687.94;4981150;28;20375;-83
2022/05/25 03:23:26;;;;;;;6.55;3.65;;;10.10;99.90;;;-144.05;82.28;125687.94;4981015;28;20070;-85
2022/05/25 03:25:52;;;;;;;6.50;3.67;;;10.10;99.90;;;-144.05;82.69;125687.94;4979606;28;20395;-84
2022/05/25 03:28:19;;;;;;;8.98;3.83;;;10.20;99.90;;;-144.05;82.35;125687.94;4980861;28;20031;-85
2022/05/25 03:30:47;;;;;;;7.95;4.25;;;10.10;99.90;;;-144.05;82.52;125687.94;4996118;28;20026;-85
2022/05/25 03:33:14;;;;;;;7.50;3.67;;;10.10;99.90;;;-144.05;82.31;125687.94;4979562;28;20364;-86
2022/05/25 03:35:40;;;;;;;9.13;3.60;;;10.10;99.90;;;-144.05;82.57;125687.94;4986594;28;20023;-85
2022/05/25 03:38:06;;;;;;;10.52;4.13;;;10.10;99.90;;;-144.05;82.81;125687.94;4991060;28;20035;-87
2022/05/25 03:40:33;;;;;;;6.75;3.88;;;10.00;99.90;;;-144.05;82.52;125687.94;4980592;28;20121;-87
2022/05/25 03:42:59;;;;;;;13.95;5.03;;;10.00;99.90;;;-144.05;82.29;125687.94;4978722;28;20030;-85
2022/05/25 03:45:25;;;;;;;6.30;4.53;;;10.10;99.90;;;-144.05;82.34;125687.94;4979220;28;20027;-86
2022/05/25 03:47:52;;;;;;;5.35;4.05;;;10.10;99.90;;;-144.05;82.52;125687.94;4979434;28;20046;-86
2022/05/25 03:50:18;;;;;;;7.35;3.75;;;10.10;99.90;;;-144.05;82.48;125687.94;4980949;28;20058;-84
2022/05/25 03:52:46;;;;;;;6.38;3.88;;;10.20;99.90;;;-144.05;82.66;125687.94;4978132;28;20062;-87
2022/05/25 03:55:12;;;;;;;6.72;4.30;;;10.20;99.90;;;-144.05;82.66;125687.94;4978804;28;20034;-83
2022/05/25 03:57:38;;;;;;;7.60;4.25;;;10.20;99.90;;;-144.05;82.64;125687.94;4978356;28;20027;-85
2022/05/25 04:00:07;;;;;;;9.50;4.68;;;10.30;99.90;;;-144.05;82.43;125687.94;4980043;28;20027;-87
2022/05/25 04:02:34;;;;;;;7.47;4.28;;;10.30;99.90;;;-144.05;82.67;125687.94;4978843;28;20027;-85
2022/05/25 04:05:09;;;;;;;8.10;4.07;;;10.30;99.90;;;-144.05;82.54;125687.94;4980223;28;20054;-86
2022/05/25 04:07:45;;;;;;;5.03;3.92;;;10.30;99.90;;;-144.05;82.62;125687.94;4978691;28;20034;-86
2022/05/25 04:10:19;;;;;;;8.43;4.40;;;10.30;99.90;;;-144.05;82.66;125687.94;4978033;28;20081;-86
2022/05/25 04:12:46;;;;;;;6.63;4.10;;;10.30;99.90;;;-144.05;82.71;125687.94;4993998;28;20073;-86
2022/05/25 04:15:27;;;;;;;10.50;5.10;;;10.30;99.90;;;-144.05;82.71;125687.94;4978126;28;20062;-85
2022/05/25 04:17:54;;;;;;;6.60;3.85;;;10.40;99.90;;;-144.05;82.50;125687.94;4979168;28;20045;-84
2022/05/25 04:20:24;;;;;;;9.40;5.20;;;10.40;99.90;;;-144.05;82.45;125687.94;4977970;28;20023;-86
2022/05/25 04:22:50;;;;;;;8.75;4.43;;;10.50;99.90;;;-144.05;82.19;125687.94;4994420;28;20081;-84
2022/05/25 04:25:21;;;;;;;7.10;4.38;;;10.50;99.90;;;-144.05;82.33;125687.94;4980114;28;20026;-85
2022/05/25 04:27:50;;;;;;;9.77;4.78;;;10.50;99.90;;;-144.05;82.22;125687.94;4994420;28;20035;-83
2022/05/25 04:30:27;;;;;;;6.85;3.90;;;10.60;99.90;;;-144.05;81.94;125687.94;4979675;28;20117;-85
2022/05/25 04:32:54;;;;;;;11.15;4.65;;;10.70;99.90;;;-144.05;82.14;125687.94;4977427;28;20057;-85
2022/05/25 04:35:22;;;;;;;8.98;4.32;;;10.70;99.90;;;-144.05;81.43;125687.94;4978885;28;20062;-88
2022/05/25 04:37:49;;;;;;;6.20;4.47;;;10.80;99.90;;;-144.05;80.89;125687.94;4977120;28;20129;-85
2022/05/25 04:40:23;;;;;;;6.15;4.22;;;10.90;99.90;;;-144.05;80.92;125687.94;4979587;28;20038;-85
2022/05/25 04:42:51;;;;;;;8.60;4.65;;;10.90;99.90;;;-144.05;81.16;125687.94;4979689;28;20027;-85
2022/05/25 04:45:18;;;;;;;7.10;4.70;;;10.90;99.90;;;-144.05;80.89;125687.94;4993812;28;20038;-84
2022/05/25 04:47:44;;;;;;;7.63;5.03;;;11.00;99.90;;;-144.05;80.66;125687.94;4979483;28;20558;-86
2022/05/25 04:50:15;;;;;;;9.25;5.50;;;11.10;99.90;;;-144.05;80.66;125687.94;4978576;28;20125;-87
2022/05/25 04:52:41;;;;;;;12.02;5.68;;;11.30;99.90;;;-144.05;79.63;125687.94;4980303;28;20034;-84
2022/05/25 04:57:19;;;;;;;9.68;5.47;;;11.40;99.90;;;-144.05;79.30;125687.94;4979649;28;20050;-85
2022/05/25 04:57:56;;;;;;;11.00;5.43;;;11.50;99.90;;;-144.05;78.24;125687.94;4979212;28;20077;-86
2022/05/25 05:00:22;;;;;;;12.82;5.18;;;11.70;99.90;;;-144.05;77.31;125687.94;4979539;28;20031;-86
2022/05/25 05:02:48;;;;;;;10.35;5.22;;;11.80;99.90;;;-144.05;76.52;125687.94;4982803;28;20431;-84
2022/05/25 05:05:14;;;;;;;8.63;5.60;;;11.90;99.90;;;-144.05;76.07;125687.94;4994129;28;20038;-85
2022/05/25 05:07:40;;;;;;;9.50;4.60;;;12.00;99.90;;;-144.05;74.61;125687.94;4978298;28;20061;-83
2022/05/25 05:10:07;;;;;;;8.65;5.35;;;12.20;99.90;;;-144.05;74.11;125687.94;4997470;28;20094;-85
2022/05/25 05:12:33;;;;;;;9.07;5.90;;;12.30;99.90;;;-144.05;73.70;125687.94;4976522;28;20033;-86
2022/05/25 05:14:59;;;;;;;10.85;5.35;;;12.40;99.90;;;-144.05;73.18;125687.94;4978453;28;20027;-87
2022/05/25 05:17:25;;;;;;;9.25;5.05;;;12.60;99.90;;;-144.05;73.25;125687.94;4976815;28;20039;-85
2022/05/25 05:19:51;;;;;;;12.48;5.90;;;12.70;99.90;;;-144.05;72.79;125687.94;4977405;28;20022;-84
2022/05/25 05:22:17;;;;;;;11.90;4.75;;;12.80;99.90;;;-144.05;71.64;125687.94;4978487;28;20061;-86
2022/05/25 05:24:43;;;;;;;9.13;4.78;;;13.00;99.90;;;-144.05;70.63;125687.94;4976532;28;20364;-86
2022/05/25 05:27:10;;;;;;;8.30;4.78;;;13.30;99.90;;;-144.05;69.11;125687.94;4977957;28;20109;-85
2022/05/25 05:29:36;;;;;;;11.73;5.57;;;13.40;99.90;;;-144.05;67.98;125687.94;4976774;28;20037;-85
2022/05/25 05:32:02;;;;;;;7.05;4.10;;;13.70;99.90;;;-144.05;67.40;125687.94;4979141;28;20030;-85
2022/05/25 05:34:28;;;;;;;8.40;4.22;;;13.70;99.90;;;-144.05;66.65;125687.94;4994086;28;20034;-85
2022/05/25 05:37:14;;;;;;;10.27;3.95;;;13.90;99.90;;;-144.05;66.80;125687.94;4977931;28;20442;-84
2022/05/25 05:39:45;;;;;;;9.00;5.03;;;14.00;99.90;;;-144.05;64.23;125687.94;4979800;28;20035;-86
2022/05/25 05:42:17;;;;;;;7.32;3.92;;;14.30;99.90;;;-144.05;64.72;125687.94;4978254;28;20031;-84
2022/05/25 05:45:23;;;;;;;6.88;4.05;;;14.20;99.90;;;-144.05;64.28;125687.94;4981166;28;20479;-85
2022/05/25 05:48:14;;;;;;;5.72;3.30;;;14.20;99.90;;;-144.05;64.22;125687.94;4982198;28;20066;-84
2022/05/25 05:50:43;;;;;;;7.93;3.28;;;14.40;99.90;;;-144.05;63.16;125687.94;4985913;28;20467;-84
2022/05/25 05:53:12;;;;;;;7.53;4.32;;;14.60;99.90;;;-144.05;62.91;125687.94;4978221;28;20062;-86
2022/05/25 05:55:44;;;;;;;8.70;4.78;;;14.70;99.90;;;-144.05;62.44;125687.94;4978093;28;20487;-85
2022/05/25 05:58:11;;;;;;;5.80;4.00;;;14.70;99.90;;;-144.05;62.99;125687.94;4977654;28;20038;-85
2022/05/25 06:00:39;;;;;;;6.88;4.00;;;14.50;99.90;;;-144.05;63.80;125687.94;4993473;28;20027;-87
2022/05/25 06:03:05;;;;;;;8.40;5.10;;;14.30;99.90;;;-144.05;65.38;125687.94;4979026;28;20066;-84
2022/05/25 06:05:32;;;;;;;7.57;4.03;;;14.20;99.90;;;-144.05;64.25;125687.94;4993464;28;20027;-84
2022/05/25 06:08:18;;;;;;;10.45;6.00;;;14.40;99.90;;;-144.05;63.38;125687.94;4977187;28;20035;-85
2022/05/25 06:10:45;;;;;;;12.75;5.60;;;14.80;99.90;;;-144.05;60.70;125687.94;4980944;28;20467;-85
2022/05/25 06:13:11;;;;;;;10.27;4.95;;;15.20;99.90;;;-144.05;60.02;125687.94;4981824;28;20110;-85
2022/05/25 06:21:14;;;;;;;6.47;3.03;;;15.70;99.90;;;-144.05;57.58;125687.94;4984101;28;20045;-86
2022/05/25 06:23:40;;;;;;;9.65;4.82;;;16.00;99.90;;;-144.05;58.00;125687.94;4981145;28;20030;-86
2022/05/25 06:26:05;;;;;;;6.78;3.67;;;16.20;99.90;;;-144.05;56.76;125687.94;4981255;28;20034;-85
2022/05/25 06:28:31;;;;;;;7.22;2.88;;;16.50;99.90;;;-144.05;54.94;125687.94;4981891;28;20439;-85
2022/05/25 06:30:57;;;;;;;9.48;4.05;;;16.70;99.90;;;-144.05;54.73;125687.94;4981420;28;20187;-85
2022/05/25 06:33:23;;;;;;;3.78;2.45;;;16.90;99.90;;;-144.05;53.85;125687.94;4980491;28;20025;-86
2022/05/25 06:35:49;;;;;;;5.55;2.95;;;17.20;99.90;;;-144.05;52.79;125687.94;4982429;28;20490;-87
2022/05/25 06:38:16;;;;;;;7.50;2.70;;;17.10;99.90;;;-144.05;52.48;125687.94;4981542;28;20034;-86
2022/05/25 06:40:41;;;;;;;6.95;2.95;;;17.20;99.90;;;-144.05;51.40;125687.94;4981251;28;20034;-88
2022/05/25 06:43:13;;;;;;;4.97;2.38;;;17.20;99.90;;;-144.05;51.59;125687.94;4980045;28;20027;-85
2022/05/25 06:45:39;;;;;;;6.40;1.98;;;17.10;99.90;;;-144.05;51.76;125687.94;4980090;28;20031;-87
2022/05/25 06:48:07;;;;;;;4.10;1.33;;;17.10;99.90;;;-144.05;50.29;125687.94;4981355;28;20077;-86
2022/05/25 06:50:34;;;;;;;9.60;2.60;;;17.20;99.90;;;-144.05;51.40;125687.94;4979745;28;20030;-86
2022/05/25 06:53:00;;;;;;;6.55;1.48;;;17.00;99.90;;;-144.05;50.75;125687.94;4996468;28;20115;-89
2022/05/25 06:55:26;;;;;;;7.07;2.30;;;16.90;99.90;;;-144.05;51.15;125687.94;4981715;28;20066;-86
2022/05/25 06:57:52;;;;;;;8.40;3.03;;;17.10;99.90;;;-144.05;51.52;125687.94;4980218;28;20038;-86
2022/05/25 07:00:19;;;;;;;10.40;3.08;;;17.40;99.90;;;-144.05;50.03;125687.94;4980044;28;20647;-87
2022/05/25 07:02:44;;;;;;;6.13;1.90;;;17.50;99.90;;;-144.05;47.86;125687.94;4979764;28;20062;-86
2022/05/25 07:05:10;;;;;;;4.82;2.13;;;17.70;99.90;;;-144.05;48.09;125687.94;4996579;28;20026;-85
2022/05/25 07:07:38;;;;;;;4.22;1.70;;;17.60;99.90;;;-144.05;48.06;125687.94;4981612;28;20031;-86
2022/05/25 07:10:05;;;;;;;4.70;1.17;;;17.70;99.90;;;-144.05;47.15;125687.94;4981582;28;20031;-87
2022/05/25 07:12:32;;;;;;;2.92;1.00;;;18.00;99.90;;;-144.05;46.55;125687.94;4981691;28;20023;-85
2022/05/25 07:14:58;;;;;;;3.42;1.60;;;18.10;99.90;;;-144.05;46.14;125687.94;4980140;28;20026;-86
2022/05/25 07:17:24;;;;;;;5.57;2.38;;;18.30;99.90;;;-144.05;45.50;125687.94;4980784;28;20050;-85
2022/05/25 07:19:50;;;;;;;2.85;1.70;;;18.20;99.90;;;-144.05;45.73;125687.94;4980460;28;20395;-87
2022/05/25 07:22:16;;;;;;;2.92;0.90;;;18.00;99.90;;;-144.05;45.30;125687.94;4981471;28;20023;-89
2022/05/25 07:24:42;;;;;;;4.60;1.05;;;18.20;99.90;;;-144.05;45.08;125687.94;4982296;28;20054;-86
2022/05/25 07:27:07;;;;;;;1.30;0.60;;;18.20;99.90;;;-144.05;43.75;125687.94;4981649;28;20486;-85
2022/05/25 07:29:33;;;;;;;4.25;1.77;;;18.50;99.90;;;-144.05;44.27;125687.94;4996624;28;20030;-84
2022/05/25 07:32:09;;;;;;;2.35;1.40;;;18.50;99.90;;;-144.05;42.77;125687.94;4981226;28;20030;-85
2022/05/25 07:35:11;;;;;;;3.40;1.58;;;18.70;99.90;;;-144.05;42.63;125687.94;4981481;28;20034;-85
2022/05/25 07:37:42;;;;;;;3.45;1.70;;;18.90;99.90;;;-144.05;42.13;125687.94;4979136;28;20035;-86
2022/05/25 07:40:22;;;;;;;3.55;1.70;;;19.30;99.90;;;-144.05;40.89;125687.94;4999257;28;20055;-86
2022/05/25 07:42:56;;;;;;;3.47;1.48;;;19.30;93.90;;;-144.05;41.54;125687.94;4978709;28;20458;-86
2022/05/25 07:45:23;;;;;;;5.18;1.88;;;19.00;93.30;;;-144.05;42.20;125687.94;4980009;28;20122;-85
2022/05/25 07:47:51;;;;;;;3.42;1.33;;;18.90;95.80;;;-144.05;41.04;125687.94;4979672;28;20086;-86
2022/05/25 07:50:17;;;;;;;4.75;1.95;;;19.20;95.20;;;-144.05;40.55;125687.94;4995518;28;20031;-85
2022/05/25 07:52:43;;;;;;;4.57;1.27;;;19.60;94.80;;;-144.05;38.63;125687.94;4995447;28;20041;-87
2022/05/25 07:55:14;;;;;;;5.60;1.60;;;19.70;88.70;;;-144.05;38.84;125687.94;4981103;28;20035;-86
2022/05/25 07:57:41;;;;;;;1.90;0.90;;;19.80;89.10;;;-144.05;38.67;125687.94;4979388;28;20047;-85
2022/05/25 08:00:08;;;;;;;2.22;0.77;;;20.00;88.00;;;-144.05;38.84;125687.94;4996278;28;20073;-88
2022/05/25 08:05:44;;;;;;;3.65;1.80;;;20.60;83.40;;;-144.05;36.89;125687.94;4993714;28;20097;-88
2022/05/25 08:08:25;;;;;;;3.38;1.95;;;20.70;79.30;;;-144.05;36.89;125687.94;4981488;28;20023;-86
2022/05/25 08:11:03;;;;;;;1.48;0.90;;;20.50;77.40;;;-144.05;37.50;125687.94;4980538;28;20030;-87
2022/05/25 08:13:30;;;;;;;0.90;0.50;;;20.60;78.90;;;-144.05;36.96;125687.94;4979640;28;20046;-86
2022/05/25 08:15:56;;;;;;;2.80;1.17;;;20.70;79.00;;;-144.05;37.56;125687.94;4981345;28;20034;-86
2022/05/25 08:18:23;;;;;;;1.63;0.93;;;20.60;77.40;;;-144.05;36.44;125687.94;4980169;28;20038;-85
2022/05/25 08:20:49;;;;;;;3.78;0.70;;;20.80;75.60;;;-144.05;36.44;125687.94;4981236;28;20042;-83
2022/05/25 08:23:17;;;;;;;2.22;0.70;;;21.10;76.70;;;-144.05;35.23;125687.94;4995373;28;20031;-84
2022/05/25 08:25:45;;;;;;;1.13;0.80;;;21.10;72.20;;;-144.05;35.24;125687.94;4979687;28;20058;-84
2022/05/25 08:28:12;;;;;;;5.57;1.48;;;21.30;72.60;;;-144.05;35.95;125687.94;4977719;28;20502;-86
2022/05/25 08:30:42;;;;;;;1.40;0.95;;;21.10;72.70;;;-144.05;35.47;125687.94;4978667;28;20442;-87
2022/05/25 08:33:10;;;;;;;5.43;1.10;;;21.30;72.80;;;-144.05;35.50;125687.94;4979718;28;20054;-86
2022/05/25 08:35:36;;;;;;;2.28;0.60;;;21.40;72.70;;;-144.05;33.56;125687.94;4978913;28;20098;-85
2022/05/25 08:38:03;;;;;;;2.35;0.60;;;21.50;67.30;;;-144.05;35.24;125687.94;4978340;28;20027;-86
2022/05/25 08:40:33;;;;;;;2.45;0.80;;;21.50;70.70;;;-144.05;33.54;125687.94;4978668;28;20475;-84
2022/05/25 08:43:28;;;;;;;3.58;0.93;;;21.50;67.10;;;-144.05;34.02;125687.94;4978462;28;20050;-88
2022/05/25 08:46:04;;;;;;;5.40;1.63;;;21.50;67.90;;;-144.05;35.20;125687.94;4978836;28;20069;-85
2022/05/25 08:48:33;;;;;;;6.68;3.17;;;21.70;70.40;;;-144.05;35.65;125687.94;4977908;28;20130;-86
2022/05/25 08:51:11;;;;;;;1.55;0.85;;;21.90;72.60;;;-144.05;33.89;125687.94;4978759;28;20031;-86
2022/05/25 08:53:39;;;;;;;8.15;2.15;;;22.20;68.60;;;-144.05;34.76;125687.94;4978029;28;20080;-87
2022/05/25 08:56:36;;;;;;;4.00;2.33;;;21.80;68.30;;;-144.05;35.26;125687.94;4978219;28;20086;-87
2022/05/25 08:59:30;;;;;;;5.00;2.42;;;21.50;69.10;;;-144.05;36.17;125687.94;4977663;28;20054;-85
2022/05/25 09:02:46;;;;;;;2.60;0.63;;;21.00;71.00;;;-144.05;35.80;125687.94;4979192;28;20150;-84
2022/05/25 09:05:40;;;;;;;2.88;0.80;;;20.90;71.30;;;-144.05;36.33;125687.94;4993828;28;20023;-86
2022/05/25 09:08:21;;;;;;;2.47;0.80;;;20.80;73.10;;;-144.05;35.50;125687.94;4994425;28;20107;-85
2022/05/25 09:11:01;;;;;;;2.83;0.80;;;21.00;71.90;;;-144.05;33.64;125687.94;4978223;28;20027;-85
2022/05/25 09:14:02;;;;;;;3.63;1.35;;;21.60;66.80;;;-144.05;32.51;125687.94;4993930;28;20403;-87
2022/05/25 09:16:36;;;;;;;2.70;0.80;;;21.90;66.60;;;-144.05;34.20;125687.94;4977660;28;20039;-84
2022/05/25 09:19:31;;;;;;;3.70;0.90;;;21.60;66.80;;;-144.05;33.82;125687.94;4980433;28;20368;-86
2022/05/25 09:22:10;;;;;;;2.63;0.73;;;21.80;66.20;;;-144.05;34.25;125687.94;4980699;28;20089;-85
2022/05/25 09:24:37;;;;;;;2.95;0.80;;;21.80;67.40;;;-144.05;33.77;125687.94;4978418;28;20030;-86
2022/05/25 09:27:09;;;;;;;1.63;0.70;;;21.80;65.20;;;-144.05;33.91;125687.94;4979275;28;20041;-84
2022/05/25 09:29:35;;;;;;;1.67;0.63;;;21.80;66.30;;;-144.05;32.51;125687.94;4979549;28;20034;-85
2022/05/25 09:33:04;;;;;;;2.40;0.40;;;22.20;64.30;;;-144.05;33.45;125687.94;4978433;28;20403;-85
2022/05/25 09:35:44;;;;;;;3.97;0.90;;;22.10;64.60;;;-144.05;33.80;125687.94;4977179;28;20088;-86
2022/05/25 09:38:43;;;;;;;3.28;0.90;;;22.00;66.80;;;-144.05;34.15;125687.94;4979542;28;20031;-85
2022/05/25 09:41:23;;;;;;;1.98;0.60;;;21.80;65.90;;;-144.05;33.71;125687.94;4978701;28;20037;-84
2022/05/25 09:43:56;;;;;;;2.92;0.95;;;21.40;64.80;;;-144.05;34.19;125687.94;4977234;28;20121;-83
2022/05/25 09:46:27;;;;;;;2.92;1.00;;;21.30;65.30;;;-144.05;33.96;125687.94;4977208;28;20130;-85
2022/05/25 09:49:02;;;;;;;6.65;2.47;;;21.10;65.00;;;-144.05;35.19;125687.94;4993462;28;20043;-85
2022/05/25 09:51:50;;;;;;;4.00;1.17;;;20.80;66.70;;;-144.05;36.16;125687.94;4979381;28;20110;-84
2022/05/25 09:54:34;;;;;;;3.60;0.60;;;20.50;69.80;;;-144.05;35.45;125687.94;4987560;28;20081;-84
2022/05/25 09:57:08;;;;;;;3.13;0.68;;;21.00;70.00;;;-144.05;34.43;125687.94;4997889;28;20023;-83
2022/05/25 09:59:52;;;;;;;2.47;0.63;;;21.40;67.60;;;-144.05;33.68;125687.94;4997011;28;20046;-82
2022/05/25 10:02:50;;;;;;;2.40;0.55;;;22.00;65.50;;;-144.05;33.06;125687.94;5012891;28;20031;-82
2022/05/25 10:05:30;;;;;;;1.33;0.50;;;22.10;63.30;;;-144.05;32.34;125687.94;4989887;28;20034;-84
2022/05/25 10:08:23;;;;;;;3.47;0.55;;;22.00;61.30;;;-144.05;33.60;125687.94;4992860;28;20031;-86
2022/05/25 10:10:56;;;;;;;1.45;0.60;;;21.90;63.40;;;-144.05;32.85;125687.94;4982704;28;20023;-88
2022/05/25 10:13:42;;;;;;;3.33;0.50;;;22.00;62.50;;;-144.05;34.00;125687.94;4981564;28;20026;-86
2022/05/25 10:16:29;;;;;;;2.90;0.52;;;21.80;64.20;;;-144.05;32.45;125687.94;4982037;28;20030;-85
2022/05/25 10:19:00;;;;;;;3.90;0.60;;;22.10;63.00;;;-144.05;33.85;125687.94;4987961;28;20453;-84
2022/05/25 10:21:36;;;;;;;3.67;0.50;;;21.80;63.00;;;-144.05;33.79;125687.94;4990014;28;20459;-83
2022/05/25 10:24:35;;;;;;;1.25;0.57;;;21.60;62.80;;;-144.05;34.29;125687.94;4981405;28;20038;-84
2022/05/25 10:27:19;;;;;;;3.47;0.77;;;21.50;64.60;;;-144.05;33.74;125687.94;4995536;28;20035;-85
2022/05/25 10:38:45;;;;;;;3.40;0.82;;;20.90;66.00;;;-144.05;33.70;125687.94;4979017;28;20045;-86
2022/05/25 10:44:20;;;;;;;1.75;1.02;;;22.10;62.60;;;-144.05;32.35;125687.94;4975737;28;20402;-84
2022/05/25 10:46:57;;;;;;;3.45;0.80;;;21.70;60.50;;;-144.05;33.16;125687.94;4973967;28;20391;-82
2022/05/25 10:49:41;;;;;;;1.30;0.40;;;21.60;62.60;;;-144.05;34.24;125687.94;4975324;28;20030;-81
2022/05/25 10:52:17;;;;;;;4.70;0.70;;;21.60;65.00;;;-144.05;32.80;125687.94;4975916;28;20034;-84
2022/05/25 10:54:47;;;;;;;2.90;0.40;;;22.20;62.90;;;-144.05;33.19;125687.94;4976077;28;20408;-85